Time;durP1;ratioP1;P1;durP2;ratioP2;P2;SDS_P1;SDS_P2;PMS_P1;PMS_P2;Temp;Humidity;BMP_temperature;BMP_pressure;BME280_temperature;BME280_humidity;BME280_pressure;Samples;Min_cycle;Max_cycle;Signal;HPM_P1;HPM_P2
2023/12/16 03:48:16;;;;;;;27.67;12.02;;;9.20;99.90;;;;;;6206466;22;20008;31
2023/12/16 05:45:51;;;;;;;24.77;12.15;;;9.20;99.90;;;;;;6239619;22;20034;-68
2023/12/16 05:48:37;;;;;;;24.23;12.07;;;9.10;99.90;;;;;;6238919;23;20090;-68
2023/12/16 05:51:23;;;;;;;26.08;11.52;;;9.10;99.90;;;;;;6240356;23;20009;-68
2023/12/16 05:54:09;;;;;;;19.73;10.73;;;9.10;99.90;;;;;;6239938;23;20012;-70
2023/12/16 05:56:55;;;;;;;25.48;12.70;;;9.10;99.90;;;;;;6238482;23;20422;-70
2023/12/16 05:59:41;;;;;;;21.02;10.10;;;9.00;99.90;;;;;;6217920;23;20070;-70
2023/12/16 06:02:26;;;;;;;25.10;12.02;;;9.00;99.90;;;;;;6238110;23;20374;-71
2023/12/16 06:05:13;;;;;;;21.42;10.57;;;9.00;99.90;;;;;;6240608;23;20004;-71
2023/12/16 06:07:58;;;;;;;23.70;12.25;;;9.00;99.90;;;;;;6217288;23;20371;-71
2023/12/16 06:10:44;;;;;;;20.50;11.23;;;9.00;99.90;;;;;;6239414;23;20004;-71
2023/12/16 06:13:30;;;;;;;30.85;12.25;;;9.00;99.90;;;;;;6238421;23;20070;-71
2023/12/16 06:16:17;;;;;;;17.88;8.77;;;9.00;99.90;;;;;;6239457;23;20026;-69
2023/12/16 06:19:03;;;;;;;18.13;9.70;;;9.00;99.90;;;;;;6239486;23;20430;-71
2023/12/16 06:21:49;;;;;;;23.48;10.00;;;9.00;99.90;;;;;;6217169;23;20008;-71
2023/12/16 06:24:35;;;;;;;23.10;10.95;;;9.00;99.90;;;;;;6239762;23;20406;-71
2023/12/16 06:27:21;;;;;;;21.80;10.90;;;9.00;99.90;;;;;;6219740;22;20399;-71
2023/12/16 06:30:08;;;;;;;24.13;11.27;;;9.00;99.90;;;;;;6236312;23;20011;-70
2023/12/16 06:32:54;;;;;;;32.80;10.73;;;9.00;99.90;;;;;;6238820;23;20056;-71
2023/12/16 06:35:40;;;;;;;16.10;9.43;;;9.00;99.90;;;;;;6238580;23;20074;-70
2023/12/16 06:38:26;;;;;;;22.30;10.00;;;9.00;99.90;;;;;;6218847;23;20012;-73
2023/12/16 06:41:12;;;;;;;19.55;9.30;;;9.10;99.90;;;;;;6237142;23;20004;-71
2023/12/16 06:43:58;;;;;;;18.85;10.20;;;9.10;99.90;;;;;;6238369;22;20417;-71
2023/12/16 06:46:44;;;;;;;20.80;9.68;;;9.10;99.90;;;;;;6219214;23;20004;-70
2023/12/16 06:49:30;;;;;;;22.65;9.40;;;9.10;99.90;;;;;;6239398;23;20004;-69
2023/12/16 06:52:16;;;;;;;20.52;9.95;;;9.10;99.90;;;;;;6238821;23;20386;-68
2023/12/16 06:55:02;;;;;;;20.80;8.63;;;9.10;99.90;;;;;;6240025;23;20427;-67
2023/12/16 06:57:48;;;;;;;18.02;8.40;;;9.20;99.90;;;;;;6220748;23;20008;-61
2023/12/16 07:00:34;;;;;;;21.58;9.30;;;9.20;99.90;;;;;;6240391;23;20008;-60
2023/12/16 07:03:20;;;;;;;14.93;7.90;;;9.20;99.90;;;;;;6239129;23;20375;-62
2023/12/16 07:06:07;;;;;;;13.35;7.97;;;9.20;99.90;;;;;;6238960;23;20012;-62
2023/12/16 07:08:53;;;;;;;14.50;9.13;;;9.20;99.90;;;;;;6219109;23;20004;-64
2023/12/16 07:11:40;;;;;;;15.60;7.90;;;9.30;99.90;;;;;;6240501;22;20151;-64
2023/12/16 07:14:28;;;;;;;18.10;8.18;;;9.30;99.90;;;;;;6220172;23;20471;-64
2023/12/16 07:17:14;;;;;;;16.90;7.68;;;9.30;99.90;;;;;;6220661;23;20008;-65
2023/12/16 07:20:00;;;;;;;13.88;7.88;;;9.30;99.90;;;;;;6241403;22;20044;-64
2023/12/16 07:22:46;;;;;;;13.88;8.43;;;9.30;99.90;;;;;;6241867;22;20006;-64
2023/12/16 07:25:33;;;;;;;16.55;8.10;;;9.30;99.90;;;;;;6219922;23;20008;-64
2023/12/16 07:28:21;;;;;;;19.90;7.93;;;9.30;99.90;;;;;;6240202;23;20356;-64
2023/12/16 07:31:07;;;;;;;19.98;7.78;;;9.30;99.90;;;;;;6239037;23;20099;-64
2023/12/16 07:33:53;;;;;;;19.52;8.32;;;9.30;99.90;;;;;;6216496;23;20016;-64
2023/12/16 07:36:39;;;;;;;18.48;8.15;;;9.30;99.90;;;;;;6239593;23;20013;-64
2023/12/16 07:39:25;;;;;;;19.60;8.02;;;9.30;99.90;;;;;;6220043;23;20021;-65
2023/12/16 07:42:11;;;;;;;15.57;8.80;;;9.30;99.90;;;;;;6240566;23;20011;-64
2023/12/16 07:44:57;;;;;;;15.10;7.78;;;9.40;99.90;;;;;;6219932;23;20090;-64
2023/12/16 07:47:43;;;;;;;17.65;7.95;;;9.40;99.90;;;;;;6240948;23;20019;-64
2023/12/16 07:50:28;;;;;;;14.85;7.30;;;9.40;99.90;;;;;;6238908;23;20054;-63
2023/12/16 07:53:14;;;;;;;19.27;9.63;;;9.40;99.90;;;;;;6238951;23;20020;-63
2023/12/16 07:56:00;;;;;;;13.60;7.30;;;9.40;99.90;;;;;;6219886;22;20027;-64
2023/12/16 07:58:46;;;;;;;19.73;7.75;;;9.40;99.90;;;;;;6239012;23;20027;-63
2023/12/16 08:01:32;;;;;;;15.98;8.00;;;9.50;99.90;;;;;;6242337;22;20012;-64
2023/12/16 08:04:18;;;;;;;17.13;7.07;;;9.50;99.90;;;;;;6240998;22;20019;-63
2023/12/16 08:07:04;;;;;;;17.00;7.43;;;9.50;99.90;;;;;;6235262;23;20004;-63
2023/12/16 08:09:50;;;;;;;13.23;6.68;;;9.60;99.90;;;;;;6215000;23;20013;-64
2023/12/16 08:12:36;;;;;;;14.80;7.47;;;9.60;99.90;;;;;;6216916;23;20398;-63
2023/12/16 08:15:22;;;;;;;16.02;8.02;;;9.60;99.90;;;;;;6240560;22;20406;-63
2023/12/16 08:18:09;;;;;;;16.50;7.38;;;9.60;99.90;;;;;;6238434;23;20251;-63
2023/12/16 08:20:55;;;;;;;11.23;6.30;;;9.60;99.90;;;;;;6238174;23;20004;-63
2023/12/16 08:23:41;;;;;;;13.82;6.90;;;9.60;99.90;;;;;;6238851;23;20392;-63
2023/12/16 08:26:27;;;;;;;16.92;5.95;;;9.60;99.90;;;;;;6237315;23;20081;-63
2023/12/16 08:29:13;;;;;;;14.73;6.40;;;9.70;99.90;;;;;;6238192;23;20008;-63
2023/12/16 08:31:59;;;;;;;13.15;6.30;;;9.70;99.90;;;;;;6239661;23;20206;-64
2023/12/16 08:34:45;;;;;;;13.75;6.55;;;9.70;99.90;;;;;;6242105;22;20009;-63
2023/12/16 08:37:31;;;;;;;11.95;6.40;;;9.70;99.90;;;;;;6239606;23;20019;-63
2023/12/16 08:40:17;;;;;;;14.93;6.10;;;9.70;99.90;;;;;;6238863;23;20043;-64
2023/12/16 08:43:03;;;;;;;13.70;6.10;;;9.70;99.90;;;;;;6214507;23;20095;-64
2023/12/16 08:45:49;;;;;;;11.07;5.53;;;9.80;99.90;;;;;;6237212;23;20332;-64
2023/12/16 08:48:35;;;;;;;10.25;5.22;;;9.90;99.90;;;;;;6236879;23;20012;-65
2023/12/16 08:51:24;;;;;;;9.20;5.75;;;9.80;99.90;;;;;;6239602;22;20027;-65
2023/12/16 08:54:10;;;;;;;18.15;6.13;;;9.90;99.90;;;;;;6238966;23;20515;-65
2023/12/16 08:56:56;;;;;;;11.73;5.97;;;10.00;99.90;;;;;;6241493;22;20015;-65
2023/12/16 08:59:42;;;;;;;7.50;4.82;;;10.00;99.90;;;;;;6238172;23;20016;-65
2023/12/16 09:02:28;;;;;;;10.55;4.80;;;10.00;99.90;;;;;;6236274;23;20498;-65
2023/12/16 09:05:16;;;;;;;8.65;4.82;;;10.00;99.90;;;;;;6237471;23;20089;-65
2023/12/16 09:08:02;;;;;;;9.63;4.55;;;10.00;99.90;;;;;;6238831;23;20087;-65
2023/12/16 09:10:48;;;;;;;11.10;5.03;;;10.10;99.90;;;;;;6238442;23;20434;-65
2023/12/16 09:13:34;;;;;;;9.63;4.25;;;10.10;99.90;;;;;;6238046;23;20048;-65
2023/12/16 09:16:20;;;;;;;14.85;4.78;;;10.10;99.90;;;;;;6238800;23;20255;-65
2023/12/16 09:19:07;;;;;;;14.70;5.18;;;10.10;99.90;;;;;;6238261;23;20459;-65
2023/12/16 09:21:53;;;;;;;10.32;4.88;;;10.10;99.90;;;;;;6239607;23;20514;-65
2023/12/16 09:24:39;;;;;;;7.55;4.32;;;10.20;99.90;;;;;;6241512;22;20016;-65
2023/12/16 09:27:25;;;;;;;14.98;5.32;;;10.20;99.90;;;;;;6238810;23;20095;-65
2023/12/16 09:30:11;;;;;;;9.55;4.18;;;10.20;99.90;;;;;;6238034;23;20095;-65
2023/12/16 09:32:57;;;;;;;9.30;4.70;;;10.20;99.90;;;;;;6238032;23;20012;-65
2023/12/16 09:35:43;;;;;;;10.68;4.20;;;10.30;99.90;;;;;;6216638;23;20522;-65
2023/12/16 09:38:29;;;;;;;11.82;4.57;;;10.30;99.90;;;;;;6240144;23;20023;-64
2023/12/16 09:41:37;;;;;;;13.45;5.15;;;10.30;99.90;;;;;;6219179;23;20008;-64
2023/12/16 09:44:24;;;;;;;10.60;4.13;;;10.30;99.90;;;;;;6239237;23;20537;-63
2023/12/16 09:47:12;;;;;;;9.95;4.00;;;10.40;99.90;;;;;;6236923;23;20015;-63
2023/12/16 09:49:59;;;;;;;13.00;4.43;;;10.30;99.90;;;;;;6218309;23;20601;-65
2023/12/16 09:52:45;;;;;;;11.25;3.75;;;10.30;99.90;;;;;;6236725;23;20027;-65
2023/12/16 09:55:31;;;;;;;14.07;5.15;;;10.40;99.90;;;;;;6237891;23;20399;-65
2023/12/16 09:58:18;;;;;;;11.38;4.80;;;10.40;99.90;;;;;;6239505;23;20407;-65
2023/12/16 10:01:06;;;;;;;17.40;9.07;;;10.40;99.90;;;;;;6237871;23;20008;-64
2023/12/16 10:03:52;;;;;;;13.00;5.75;;;10.40;99.90;;;;;;6239039;23;20414;-64
2023/12/16 10:06:39;;;;;;;12.85;4.63;;;10.50;99.90;;;;;;6237912;23;20008;-64
2023/12/16 10:09:25;;;;;;;13.00;4.43;;;10.50;99.90;;;;;;6238635;23;20019;-64
2023/12/16 10:12:12;;;;;;;12.52;3.78;;;10.60;99.90;;;;;;6238091;23;20344;-64
2023/12/16 10:14:58;;;;;;;11.07;3.33;;;10.60;99.90;;;;;;6238491;23;20475;-64
2023/12/16 10:17:44;;;;;;;8.55;4.20;;;10.60;99.90;;;;;;6214312;23;20454;-64
2023/12/16 10:20:30;;;;;;;8.48;3.53;;;10.60;99.90;;;;;;6240998;22;20011;-64
2023/12/16 10:23:16;;;;;;;13.32;4.68;;;10.70;99.90;;;;;;6238671;23;20019;-64
2023/12/16 10:26:02;;;;;;;10.85;3.80;;;10.60;99.90;;;;;;6242898;22;20008;-64
2023/12/16 10:28:52;;;;;;;15.88;4.78;;;10.60;99.90;;;;;;6238985;23;20474;-65
2023/12/16 10:31:39;;;;;;;13.25;4.03;;;10.60;99.90;;;;;;6240253;23;20008;-64
2023/12/16 10:34:29;;;;;;;9.45;4.38;;;10.60;99.90;;;;;;6239678;23;20015;-64
2023/12/16 10:37:15;;;;;;;13.52;3.80;;;10.50;99.90;;;;;;6218420;23;20091;-64
2023/12/16 10:40:01;;;;;;;13.30;3.72;;;10.50;99.90;;;;;;6238658;23;20005;-64
2023/12/16 10:42:47;;;;;;;8.60;3.80;;;10.50;99.90;;;;;;6241011;23;20061;-64
2023/12/16 10:45:33;;;;;;;10.98;4.20;;;10.50;99.90;;;;;;6240274;23;20024;-64
2023/12/16 10:48:21;;;;;;;7.78;4.65;;;10.50;99.90;;;;;;6241343;23;20044;-64
2023/12/16 10:51:10;;;;;;;10.10;4.13;;;10.50;99.90;;;;;;6240323;23;20481;-64
2023/12/16 10:54:01;;;;;;;7.85;3.38;;;10.50;99.90;;;;;;6239785;23;20051;-70
2023/12/16 10:57:01;;;;;;;12.80;3.78;;;10.50;99.90;;;;;;6231691;23;20012;-68
2023/12/16 11:00:09;;;;;;;7.28;3.95;;;10.50;99.90;;;;;;6236823;23;20116;-68
2023/12/16 11:03:04;;;;;;;10.38;3.42;;;10.50;99.90;;;;;;6239996;23;20340;-69
2023/12/16 11:05:56;;;;;;;5.40;2.58;;;10.50;99.90;;;;;;6238499;23;20031;-68
2023/12/16 11:08:43;;;;;;;8.20;3.42;;;10.50;99.90;;;;;;6239174;23;20115;-68
2023/12/16 11:11:30;;;;;;;9.88;3.63;;;10.50;99.90;;;;;;6237751;23;20011;-68
2023/12/16 11:14:17;;;;;;;10.73;3.75;;;10.60;99.90;;;;;;6240359;23;20016;-70
2023/12/16 11:17:09;;;;;;;12.07;3.03;;;10.60;99.90;;;;;;6239789;23;20371;-70
2023/12/16 11:20:09;;;;;;;12.85;4.90;;;10.60;99.90;;;;;;6238876;23;20074;-70
2023/12/16 11:22:56;;;;;;;8.13;3.95;;;10.60;99.90;;;;;;6216627;23;20375;-69
2023/12/16 11:25:43;;;;;;;5.47;3.03;;;10.60;99.90;;;;;;6220069;23;20344;-70
2023/12/16 11:28:29;;;;;;;16.70;3.92;;;10.60;99.80;;;;;;6239086;23;20008;-70
2023/12/16 11:31:15;;;;;;;14.20;4.25;;;10.70;99.70;;;;;;6237964;23;20012;-70
2023/12/16 11:34:03;;;;;;;10.07;3.40;;;10.70;99.60;;;;;;6242181;22;20017;-69
2023/12/16 11:36:49;;;;;;;8.18;3.40;;;10.70;99.60;;;;;;6218369;23;20022;-69
2023/12/16 11:39:47;;;;;;;10.82;3.80;;;10.70;99.50;;;;;;6217460;23;20008;-70
2023/12/16 11:42:48;;;;;;;8.07;3.55;;;10.70;99.40;;;;;;6238342;23;20493;-70
2023/12/16 11:45:39;;;;;;;11.38;4.10;;;10.70;99.40;;;;;;6209054;23;20025;-70
2023/12/16 11:48:24;;;;;;;14.15;4.05;;;10.70;99.40;;;;;;6209917;23;20035;-70
2023/12/16 11:51:10;;;;;;;9.60;3.45;;;10.80;99.40;;;;;;6211063;23;20016;-70
2023/12/16 11:53:57;;;;;;;9.90;3.72;;;10.80;99.40;;;;;;6212767;23;20025;-69
2023/12/16 11:56:43;;;;;;;7.03;3.08;;;10.80;99.30;;;;;;6209896;23;20044;-69
2023/12/16 11:59:29;;;;;;;12.10;3.58;;;10.80;99.20;;;;;;6210810;23;20009;-69
2023/12/16 12:02:15;;;;;;;9.68;3.58;;;10.80;99.20;;;;;;6211165;23;20008;-68
2023/12/16 12:05:01;;;;;;;14.65;3.70;;;10.80;99.10;;;;;;6208370;23;20016;-69
2023/12/16 12:07:48;;;;;;;8.38;3.65;;;10.80;99.10;;;;;;6208908;23;20016;-69
2023/12/16 12:10:34;;;;;;;9.55;4.47;;;10.80;99.10;;;;;;6209606;23;20016;-71
2023/12/16 12:13:20;;;;;;;15.60;5.10;;;10.90;99.10;;;;;;6209250;23;20430;-68
2023/12/16 12:16:06;;;;;;;9.18;3.80;;;10.90;99.00;;;;;;6206243;23;20012;-68
2023/12/16 12:18:52;;;;;;;11.07;3.28;;;10.90;99.00;;;;;;6210004;23;20567;-69
2023/12/16 12:21:38;;;;;;;8.43;3.67;;;10.90;98.90;;;;;;6209446;23;20095;-70
2023/12/16 12:24:25;;;;;;;9.05;3.72;;;10.90;98.90;;;;;;6211547;23;20012;-71
2023/12/16 12:27:11;;;;;;;10.10;3.55;;;10.90;98.90;;;;;;6209728;23;20012;-69
2023/12/16 12:30:04;;;;;;;8.80;4.53;;;11.00;98.80;;;;;;6212352;23;20012;-72
2023/12/16 12:32:50;;;;;;;9.82;3.53;;;10.90;98.80;;;;;;6208289;23;20068;-69
2023/12/16 12:35:36;;;;;;;8.93;3.83;;;10.90;98.80;;;;;;6210594;23;20015;-69
2023/12/16 12:38:22;;;;;;;11.68;4.15;;;11.00;98.80;;;;;;6187858;23;20017;-69
2023/12/16 12:41:09;;;;;;;9.68;3.40;;;11.00;98.80;;;;;;6209281;23;20124;-69
2023/12/16 12:43:55;;;;;;;10.00;3.42;;;11.00;98.80;;;;;;6185558;23;20090;-68
2023/12/16 12:46:46;;;;;;;8.63;4.00;;;11.00;98.70;;;;;;6188692;23;20004;-67
2023/12/16 12:49:35;;;;;;;9.52;4.20;;;11.00;98.70;;;;;;6188605;23;20008;-67
2023/12/16 12:52:38;;;;;;;9.20;3.88;;;11.00;98.70;;;;;;6185754;23;20113;-66
2023/12/16 12:55:24;;;;;;;10.38;3.33;;;11.00;98.60;;;;;;6207562;23;20032;-68
2023/12/16 12:58:11;;;;;;;8.00;3.70;;;11.00;98.60;;;;;;6187390;23;20422;-67
2023/12/16 13:01:01;;;;;;;9.60;4.32;;;11.00;98.60;;;;;;6187869;23;20015;-67
2023/12/16 13:03:47;;;;;;;10.05;3.40;;;11.00;98.60;;;;;;6188446;23;20388;-72
2023/12/16 13:06:33;;;;;;;6.45;3.40;;;11.00;98.60;;;;;;6208576;23;20087;-74
2023/12/16 13:09:19;;;;;;;14.90;4.65;;;11.00;98.80;;;;;;6188746;23;20023;-68
2023/12/16 13:12:06;;;;;;;10.65;4.30;;;11.00;98.50;;;;;;6208173;23;20466;-68
2023/12/16 13:14:52;;;;;;;10.15;4.35;;;11.00;98.50;;;;;;6207036;23;20009;-66
2023/12/16 13:17:38;;;;;;;8.85;3.25;;;11.00;98.50;;;;;;6206180;23;20015;-65
2023/12/16 13:20:26;;;;;;;11.23;4.10;;;11.00;98.50;;;;;;6207895;23;20422;-65
2023/12/16 13:23:13;;;;;;;12.52;3.58;;;11.00;98.60;;;;;;6209088;23;20012;-67
2023/12/16 13:25:59;;;;;;;11.77;3.35;;;11.00;98.60;;;;;;6208582;23;20016;-67
2023/12/16 13:28:44;;;;;;;9.40;3.97;;;11.00;98.60;;;;;;6208312;23;20005;-67
2023/12/16 13:31:30;;;;;;;12.82;3.78;;;11.10;98.60;;;;;;6207478;23;20383;-66
2023/12/16 13:34:16;;;;;;;15.23;3.92;;;11.10;98.60;;;;;;6209153;23;20493;-66
2023/12/16 13:37:02;;;;;;;12.88;4.40;;;11.10;98.50;;;;;;6206956;23;20529;-67
2023/12/16 13:39:48;;;;;;;10.25;3.97;;;11.10;98.50;;;;;;6206809;23;20540;-67
2023/12/16 13:42:35;;;;;;;8.57;3.28;;;11.10;98.50;;;;;;6206236;23;20027;-66
2023/12/16 13:45:21;;;;;;;9.88;3.88;;;11.10;98.40;;;;;;6188625;23;20022;-71
2023/12/16 13:48:06;;;;;;;7.50;3.22;;;11.10;98.40;;;;;;6208718;23;20041;-67
2023/12/16 13:50:52;;;;;;;12.55;4.63;;;11.10;98.40;;;;;;6206968;23;20472;-66
2023/12/16 13:53:38;;;;;;;29.33;16.42;;;11.10;98.40;;;;;;6206835;23;20407;-66
2023/12/16 13:56:24;;;;;;;12.43;6.15;;;11.10;98.40;;;;;;6184864;23;20008;-66
2023/12/16 13:59:10;;;;;;;7.72;3.80;;;11.10;98.40;;;;;;6208693;23;20028;-66
2023/12/16 14:01:57;;;;;;;8.82;4.15;;;11.10;98.40;;;;;;6207327;23;20009;-67
2023/12/16 14:04:44;;;;;;;12.98;5.10;;;11.10;98.40;;;;;;6207270;23;20353;-67
2023/12/16 14:07:30;;;;;;;11.43;4.53;;;11.10;98.40;;;;;;6207585;23;20009;-66
2023/12/16 14:10:16;;;;;;;14.30;4.82;;;11.10;98.40;;;;;;6207762;23;20371;-67
2023/12/16 14:13:03;;;;;;;13.15;4.35;;;11.10;98.40;;;;;;6205696;23;20451;-67
2023/12/16 14:15:50;;;;;;;10.35;4.43;;;11.10;98.40;;;;;;6187167;23;20008;-67
2023/12/16 14:18:36;;;;;;;10.52;3.60;;;11.10;98.40;;;;;;6206776;23;20008;-67
2023/12/16 14:21:22;;;;;;;9.50;2.97;;;11.10;98.40;;;;;;6207738;23;20020;-67
2023/12/16 14:24:08;;;;;;;7.95;3.45;;;11.00;98.40;;;;;;6186474;23;20055;-67
2023/12/16 14:26:54;;;;;;;13.50;3.97;;;11.00;98.40;;;;;;6206529;23;20285;-67
2023/12/16 14:29:40;;;;;;;9.88;4.10;;;11.00;98.40;;;;;;6205528;23;20014;-67
2023/12/16 14:32:26;;;;;;;6.78;3.45;;;11.00;98.50;;;;;;6207348;23;20031;-67
2023/12/16 14:35:12;;;;;;;8.80;3.55;;;10.80;98.50;;;;;;6208515;23;20134;-67
2023/12/16 14:37:58;;;;;;;7.63;3.30;;;10.90;98.60;;;;;;6206883;23;20012;-67
2023/12/16 14:40:44;;;;;;;9.25;3.55;;;10.80;98.70;;;;;;6207811;23;20519;-67
2023/12/16 14:43:30;;;;;;;9.27;3.65;;;10.80;98.80;;;;;;6204870;23;20056;-66
2023/12/16 14:46:21;;;;;;;12.63;4.82;;;10.80;98.90;;;;;;6185466;23;20016;-66
2023/12/16 14:49:06;;;;;;;11.60;4.82;;;10.70;99.00;;;;;;6207877;23;20008;-66
2023/12/16 14:51:52;;;;;;;15.00;7.32;;;10.80;99.10;;;;;;6204452;23;20025;-67
2023/12/16 14:54:38;;;;;;;15.48;4.60;;;10.80;99.10;;;;;;6204157;23;20013;-68
2023/12/16 14:57:24;;;;;;;12.30;3.75;;;10.70;99.20;;;;;;6206603;23;20422;-67
2023/12/16 15:00:11;;;;;;;11.77;4.75;;;10.70;99.20;;;;;;6207342;23;20008;-67
2023/12/16 15:03:00;;;;;;;12.02;4.93;;;10.70;99.30;;;;;;6207632;23;20321;-67
2023/12/16 15:05:46;;;;;;;12.35;4.40;;;10.70;99.60;;;;;;6207104;23;20058;-67
2023/12/16 15:08:32;;;;;;;8.55;4.25;;;10.70;99.50;;;;;;6185112;23;20012;-67
2023/12/16 15:11:18;;;;;;;16.35;5.28;;;10.60;99.50;;;;;;6206860;23;20009;-67
2023/12/16 15:14:04;;;;;;;8.50;4.35;;;10.60;99.60;;;;;;6208946;23;20493;-67
2023/12/16 15:16:52;;;;;;;14.48;4.15;;;10.60;99.70;;;;;;6206255;23;20374;-67
2023/12/16 15:19:38;;;;;;;9.85;3.95;;;10.60;99.70;;;;;;6209635;23;20478;-67
2023/12/16 15:22:24;;;;;;;11.88;5.60;;;10.60;99.70;;;;;;6209681;23;20020;-67
2023/12/16 15:25:09;;;;;;;8.77;3.90;;;10.70;99.80;;;;;;6210362;23;20375;-67
2023/12/16 15:27:55;;;;;;;10.93;4.28;;;10.60;99.90;;;;;;6200994;23;20772;-67
2023/12/16 15:30:41;;;;;;;13.93;5.03;;;10.70;99.90;;;;;;6206743;23;20008;-62
2023/12/16 15:33:27;;;;;;;13.57;5.43;;;10.60;99.90;;;;;;6186583;23;20096;-63
2023/12/16 15:36:13;;;;;;;11.65;4.72;;;10.70;99.90;;;;;;6187071;23;20455;-64
2023/12/16 15:38:59;;;;;;;12.10;4.60;;;10.60;99.90;;;;;;6206471;23;20052;-64
2023/12/16 15:41:47;;;;;;;13.75;5.20;;;10.70;99.90;;;;;;6204273;23;20483;-67
2023/12/16 15:44:34;;;;;;;19.13;5.00;;;10.70;99.90;;;;;;6208269;23;20035;-62
2023/12/16 15:47:22;;;;;;;12.05;4.70;;;10.70;99.90;;;;;;6208930;23;20005;-69
2023/12/16 15:50:09;;;;;;;12.98;4.90;;;10.70;99.90;;;;;;6187220;23;20044;-69
2023/12/16 15:52:55;;;;;;;8.65;4.68;;;10.80;99.80;;;;;;6209636;23;20020;-66
2023/12/16 15:55:41;;;;;;;14.10;5.43;;;10.80;99.80;;;;;;6188422;23;20015;-67
2023/12/16 15:58:27;;;;;;;16.80;5.43;;;10.70;99.90;;;;;;6205868;23;20471;-65
2023/12/16 16:01:13;;;;;;;15.55;5.00;;;10.70;99.90;;;;;;6206002;23;20004;-67
2023/12/16 16:04:03;;;;;;;16.00;5.55;;;10.80;99.90;;;;;;6209921;23;20090;-67
2023/12/16 16:06:50;;;;;;;11.00;5.05;;;10.80;99.90;;;;;;6186784;23;20079;-67
2023/12/16 16:09:36;;;;;;;12.27;5.50;;;10.80;99.90;;;;;;6186611;23;20107;-67
2023/12/16 16:12:22;;;;;;;10.95;4.38;;;10.80;99.90;;;;;;6208979;23;20020;-67
2023/12/16 16:15:08;;;;;;;10.02;3.72;;;10.80;99.90;;;;;;6207343;23;20036;-67
2023/12/16 16:17:54;;;;;;;8.45;3.63;;;10.80;99.90;;;;;;6185054;23;20028;-67
2023/12/16 16:20:40;;;;;;;12.38;4.25;;;10.80;99.90;;;;;;6208242;23;20005;-67
2023/12/16 16:23:26;;;;;;;8.70;4.70;;;10.80;99.90;;;;;;6207809;23;20016;-67
2023/12/16 16:26:12;;;;;;;12.20;4.78;;;10.80;99.90;;;;;;6207794;23;20400;-67
2023/12/16 16:28:59;;;;;;;14.13;4.60;;;10.70;99.90;;;;;;6206189;23;20012;-67
2023/12/16 16:31:45;;;;;;;14.20;5.95;;;10.80;99.90;;;;;;6208447;23;20005;-67
2023/12/16 16:34:31;;;;;;;11.73;5.07;;;10.80;99.90;;;;;;6208306;23;20016;-67
2023/12/16 16:37:17;;;;;;;12.20;5.00;;;10.70;99.90;;;;;;6184372;23;20083;-67
2023/12/16 16:40:04;;;;;;;9.15;4.65;;;10.70;99.90;;;;;;6208544;23;20048;-67
2023/12/16 16:42:50;;;;;;;11.88;4.72;;;10.70;99.90;;;;;;6207632;23;20011;-67
2023/12/16 16:45:36;;;;;;;12.25;3.88;;;10.70;99.90;;;;;;6208976;23;20028;-67
2023/12/16 16:48:22;;;;;;;11.98;4.25;;;10.80;99.90;;;;;;6209001;23;20012;-70
2023/12/16 16:51:08;;;;;;;16.45;5.65;;;10.70;99.90;;;;;;6208737;23;20537;-67
2023/12/16 16:53:54;;;;;;;12.95;4.72;;;10.70;99.90;;;;;;6206717;23;20035;-59
2023/12/16 16:56:40;;;;;;;13.73;4.45;;;10.80;99.90;;;;;;6186417;23;20306;-73
2023/12/16 16:59:26;;;;;;;14.15;4.65;;;10.80;99.90;;;;;;6207648;23;20013;-74
2023/12/16 17:02:15;;;;;;;12.65;4.15;;;10.80;99.90;;;;;;6188688;23;20016;-66
2023/12/16 17:05:03;;;;;;;13.48;4.80;;;10.80;99.90;;;;;;6207297;23;20005;-69
2023/12/16 17:07:49;;;;;;;14.18;4.82;;;10.80;99.90;;;;;;6204483;23;20147;-69
2023/12/16 17:10:35;;;;;;;17.30;5.65;;;10.80;99.90;;;;;;6206836;23;20008;-69
2023/12/16 17:13:21;;;;;;;14.68;4.03;;;10.80;99.90;;;;;;6204934;23;20440;-69
2023/12/16 17:16:08;;;;;;;300.10;78.85;;;10.80;99.90;;;;;;6207356;23;20438;-69
2023/12/16 17:18:55;;;;;;;85.63;23.60;;;10.80;99.90;;;;;;6207826;23;20016;-69
2023/12/16 17:21:41;;;;;;;36.03;11.30;;;10.80;99.90;;;;;;6208554;23;20481;-69
2023/12/16 17:24:27;;;;;;;19.05;6.68;;;10.80;99.90;;;;;;6186339;23;20051;-70
2023/12/16 17:27:15;;;;;;;15.82;4.95;;;10.80;99.90;;;;;;6207322;23;20363;-68
2023/12/16 17:30:01;;;;;;;16.27;6.22;;;10.80;99.90;;;;;;6204574;23;20017;-68
2023/12/16 17:32:47;;;;;;;20.90;7.47;;;10.80;99.90;;;;;;6206730;23;20017;-71
2023/12/16 17:35:36;;;;;;;19.20;7.28;;;10.80;99.90;;;;;;6206334;23;20320;-70
2023/12/16 17:38:22;;;;;;;15.40;5.80;;;10.80;99.90;;;;;;6208780;23;20020;-70
2023/12/16 17:41:08;;;;;;;23.05;6.47;;;10.70;99.90;;;;;;6208601;23;20088;-70
2023/12/16 17:43:54;;;;;;;15.75;5.15;;;10.80;99.90;;;;;;6208514;23;20366;-69
2023/12/16 17:46:40;;;;;;;12.02;5.07;;;10.80;99.90;;;;;;6207272;23;20585;-70
2023/12/16 17:49:25;;;;;;;16.25;5.20;;;10.80;99.90;;;;;;6207717;23;20425;-70
2023/12/16 17:52:11;;;;;;;26.92;6.70;;;10.80;99.90;;;;;;6206888;23;20092;-70
2023/12/16 17:54:57;;;;;;;13.52;5.18;;;10.80;99.90;;;;;;6208345;23;20013;-71
2023/12/16 17:57:45;;;;;;;10.43;4.82;;;10.80;99.90;;;;;;6207706;23;20015;-70
2023/12/16 18:00:31;;;;;;;12.05;5.47;;;10.70;99.90;;;;;;6208607;23;20020;-70
2023/12/16 18:03:17;;;;;;;16.08;5.70;;;10.70;99.90;;;;;;6207822;23;20013;-70
2023/12/16 18:06:03;;;;;;;8.50;4.20;;;10.80;99.90;;;;;;6206661;23;20019;-70
2023/12/16 18:08:49;;;;;;;18.38;5.95;;;10.80;99.90;;;;;;6205169;23;20009;-71
2023/12/16 18:11:37;;;;;;;13.80;5.85;;;10.80;99.90;;;;;;6207485;23;20015;-70
2023/12/16 18:14:23;;;;;;;12.98;6.43;;;10.80;99.90;;;;;;6207361;23;20020;-70
2023/12/16 18:17:10;;;;;;;14.63;6.20;;;10.80;99.90;;;;;;6207150;23;20016;-70
2023/12/16 18:19:56;;;;;;;12.70;6.05;;;10.80;99.90;;;;;;6208278;23;20372;-70
2023/12/16 18:22:42;;;;;;;17.17;6.38;;;10.80;99.90;;;;;;6206225;23;20027;-70
2023/12/16 18:25:28;;;;;;;13.13;5.47;;;10.80;99.90;;;;;;6207986;23;20015;-70
2023/12/16 18:28:14;;;;;;;11.25;5.60;;;10.80;99.90;;;;;;6207047;23;20091;-70
2023/12/16 18:31:01;;;;;;;13.75;5.13;;;10.80;99.90;;;;;;6206790;23;20016;-69
2023/12/16 18:33:47;;;;;;;13.88;5.72;;;10.80;99.90;;;;;;6206532;23;20090;-71
2023/12/16 18:36:32;;;;;;;19.00;7.75;;;10.80;99.90;;;;;;6206746;23;20047;-71
2023/12/16 18:39:19;;;;;;;20.90;8.85;;;10.90;99.90;;;;;;6205193;23;20087;-71
2023/12/16 18:42:06;;;;;;;19.52;6.75;;;10.80;99.90;;;;;;6207259;23;20096;-71
2023/12/16 18:44:52;;;;;;;16.08;6.38;;;10.80;99.90;;;;;;6209387;23;20380;-70
2023/12/16 18:47:38;;;;;;;12.35;5.65;;;10.80;99.90;;;;;;6209782;23;20009;-70
2023/12/16 18:50:26;;;;;;;13.77;6.25;;;10.80;99.90;;;;;;6208380;23;20009;-71
2023/12/16 18:53:13;;;;;;;13.68;5.20;;;10.80;99.90;;;;;;6209163;23;20339;-71
2023/12/16 18:56:02;;;;;;;9.75;5.80;;;10.80;99.90;;;;;;6208886;23;20056;-71
2023/12/16 18:58:50;;;;;;;17.27;5.72;;;10.80;99.90;;;;;;6208608;23;20013;-71
2023/12/16 19:01:36;;;;;;;17.65;6.43;;;10.90;99.90;;;;;;6209223;23;20011;-71
2023/12/16 19:04:23;;;;;;;8.88;5.07;;;10.80;99.90;;;;;;6187245;23;20009;-70
2023/12/16 19:07:09;;;;;;;18.48;6.60;;;10.80;99.90;;;;;;6209454;23;20023;-71
2023/12/16 19:09:58;;;;;;;18.42;6.90;;;10.80;99.90;;;;;;6211479;23;20009;-65
2023/12/16 19:12:44;;;;;;;17.50;6.32;;;10.80;99.90;;;;;;6208587;23;20016;-65
2023/12/16 19:15:30;;;;;;;16.10;6.68;;;10.90;99.90;;;;;;6209416;23;20344;-65
2023/12/16 19:18:16;;;;;;;9.82;6.72;;;10.80;99.90;;;;;;6205816;23;20051;-66
2023/12/16 19:21:02;;;;;;;11.02;6.32;;;10.80;99.90;;;;;;6210147;23;20071;-66
2023/12/16 19:23:48;;;;;;;16.45;5.93;;;10.80;99.90;;;;;;6209883;23;20488;-65
2023/12/16 19:26:34;;;;;;;12.98;6.63;;;10.80;99.90;;;;;;6209081;23;20005;-65
2023/12/16 19:29:20;;;;;;;12.30;5.90;;;10.90;99.90;;;;;;6208874;23;20023;-65
2023/12/16 19:32:06;;;;;;;12.32;6.38;;;10.90;99.90;;;;;;6209969;23;20020;-66
2023/12/16 19:34:52;;;;;;;9.63;6.03;;;10.90;99.90;;;;;;6208473;23;20430;-65
2023/12/16 19:37:38;;;;;;;11.73;6.10;;;10.90;99.90;;;;;;6210266;23;20005;-65
2023/12/16 19:40:24;;;;;;;11.07;6.38;;;10.80;99.90;;;;;;6209582;23;20478;-65
2023/12/16 19:43:10;;;;;;;13.82;7.45;;;10.90;99.90;;;;;;6209475;23;20368;-65
2023/12/16 19:46:00;;;;;;;17.15;8.15;;;10.90;99.90;;;;;;6210046;23;20480;-65
2023/12/16 19:48:45;;;;;;;12.43;6.57;;;10.90;99.90;;;;;;6210321;23;20004;-65
2023/12/16 19:51:32;;;;;;;11.32;6.30;;;10.90;99.90;;;;;;6209098;23;20075;-65
2023/12/16 19:54:18;;;;;;;13.45;6.60;;;10.90;99.90;;;;;;6210110;23;20070;-65
2023/12/16 19:57:04;;;;;;;12.38;6.93;;;10.90;99.90;;;;;;6209465;23;20074;-66
2023/12/16 19:59:51;;;;;;;14.82;7.93;;;10.90;99.90;;;;;;6207936;23;20031;-65
2023/12/16 20:02:37;;;;;;;17.67;7.88;;;10.90;99.90;;;;;;6205714;23;20353;-65